Terminal Aerodrome Forecast
Issued by NWS Jackson, MS

Home | Current Version | Previous Version | Text Only | Print | Product List | Glossary On
Versions: 1 2 3 4 5 6 7 8 9 10 11 12 13 14 15 16 17 18
228
FTUS44 KJAN 250525
TAFMEI
TAF
KMEI 250525Z 2506/2606 23003KT P6SM SCT006 BKN090
     FM250800 22003KT 6SM BR BKN008 BKN090
     FM251300 24003KT 6SM BR VCSH BKN015 BKN090
     FM251500 28004KT P6SM VCTS BKN025CB BKN090
     FM252100 27004KT P6SM SHRA VCTS BKN090CB BKN250
     FM260100 00000KT P6SM BKN250=

USA.gov is the U.S. government's official web portal to all federal, state and local government web resources and services.